Time;durP1;ratioP1;P1;durP2;ratioP2;P2;SDS_P1;SDS_P2;PMS_P1;PMS_P2;Temp;Humidity;BMP_temperature;BMP_pressure;BME280_temperature;BME280_humidity;BME280_pressure;Samples;Min_cycle;Max_cycle;Signal;HPM_P1;HPM_P2
2023/11/03 00:00:33;;;;;;;1.60;1.33;;;8.40;99.90;;;;;;5074631;28;20277;-59
2023/11/03 00:03:05;;;;;;;1.30;1.30;;;8.40;99.90;;;;;;5072156;28;20310;-59
2023/11/03 00:05:35;;;;;;;3.50;1.70;;;8.50;99.90;;;;;;5075635;28;20238;-59
2023/11/03 00:08:04;;;;;;;2.40;1.40;;;8.40;99.90;;;;;;5075068;28;20227;-59
2023/11/03 00:10:32;;;;;;;2.23;1.20;;;8.40;99.90;;;;;;5086241;28;20184;-59
2023/11/03 00:13:02;;;;;;;2.83;1.70;;;8.40;99.90;;;;;;5088785;28;20212;-59
2023/11/03 00:15:33;;;;;;;2.10;1.40;;;8.40;99.90;;;;;;5083776;28;20220;-59
2023/11/03 00:18:01;;;;;;;1.97;1.40;;;8.40;99.90;;;;;;5093905;28;20214;-59
2023/11/03 00:20:29;;;;;;;1.63;1.40;;;8.40;99.90;;;;;;5085960;28;20216;-58
2023/11/03 00:22:59;;;;;;;1.40;1.40;;;8.40;99.90;;;;;;5095468;28;20216;-60
2023/11/03 00:25:29;;;;;;;3.17;1.37;;;8.40;99.90;;;;;;5092253;28;20203;-59
2023/11/03 00:27:57;;;;;;;3.90;1.20;;;8.40;99.90;;;;;;5084596;28;20219;-60
2023/11/03 00:30:27;;;;;;;1.50;1.20;;;8.40;99.90;;;;;;5081988;28;20211;-59
2023/11/03 00:32:57;;;;;;;1.50;1.40;;;8.40;99.90;;;;;;5087324;28;20230;-60
2023/11/03 00:35:46;;;;;;;1.40;1.20;;;8.40;99.90;;;;;;5090761;28;20302;-59
2023/11/03 00:38:15;;;;;;;1.77;1.20;;;8.40;99.90;;;;;;5088733;28;20569;-60
2023/11/03 00:40:45;;;;;;;1.60;1.50;;;8.40;99.90;;;;;;5094378;28;20287;-60
2023/11/03 00:43:14;;;;;;;3.00;1.93;;;8.40;99.90;;;;;;5084262;28;20778;-60
2023/11/03 00:45:42;;;;;;;3.57;1.57;;;8.40;99.90;;;;;;5086197;28;20567;-60
2023/11/03 00:48:12;;;;;;;1.70;1.47;;;8.40;99.90;;;;;;5080572;28;20276;-60
2023/11/03 00:50:40;;;;;;;2.33;1.43;;;8.50;99.90;;;;;;5083030;28;20299;-58
2023/11/03 00:53:29;;;;;;;2.87;1.37;;;8.40;99.90;;;;;;5091164;28;20704;-60
2023/11/03 00:55:57;;;;;;;3.67;1.50;;;8.40;99.90;;;;;;5088469;28;20222;-59
2023/11/03 00:58:25;;;;;;;2.23;1.83;;;8.40;99.90;;;;;;5090032;28;20187;-59
2023/11/03 01:00:55;;;;;;;6.07;1.70;;;8.40;99.90;;;;;;5080947;28;20234;-60
2023/11/03 01:03:25;;;;;;;3.93;1.90;;;8.30;99.90;;;;;;5084375;28;20247;-59
2023/11/03 01:05:53;;;;;;;4.00;1.70;;;8.30;99.90;;;;;;5089572;28;20219;-60
2023/11/03 01:08:22;;;;;;;5.00;1.70;;;8.30;99.90;;;;;;5091510;28;20257;-59
2023/11/03 01:10:50;;;;;;;7.97;1.97;;;8.30;99.90;;;;;;5093264;28;20513;-59
2023/11/03 01:13:23;;;;;;;1.93;1.53;;;8.30;99.90;;;;;;5087622;28;20214;-59
2023/11/03 01:15:53;;;;;;;4.23;1.90;;;8.40;99.90;;;;;;5089034;28;20709;-59
2023/11/03 01:18:22;;;;;;;3.50;1.97;;;8.30;99.90;;;;;;5077887;28;20307;-59
2023/11/03 01:20:52;;;;;;;5.97;1.90;;;8.40;99.90;;;;;;5093175;28;20570;-60
2023/11/03 01:23:20;;;;;;;3.73;2.37;;;8.40;99.90;;;;;;5083429;28;20219;-59
2023/11/03 01:25:50;;;;;;;2.53;1.90;;;8.40;99.90;;;;;;5091716;28;20192;-58
2023/11/03 01:28:18;;;;;;;3.90;1.93;;;8.40;99.90;;;;;;5088865;28;20219;-59
2023/11/03 01:30:47;;;;;;;5.40;1.93;;;8.40;99.90;;;;;;5074650;28;20220;-59
2023/11/03 01:33:15;;;;;;;4.07;2.00;;;8.30;99.90;;;;;;5069211;28;20567;-60
2023/11/03 01:35:43;;;;;;;4.53;2.17;;;8.40;99.90;;;;;;5072213;28;20220;-60
2023/11/03 01:38:13;;;;;;;4.17;1.83;;;8.40;99.90;;;;;;5068715;28;20231;-59
2023/11/03 01:40:41;;;;;;;4.80;2.03;;;8.30;99.90;;;;;;5069066;28;20211;-58
2023/11/03 01:43:10;;;;;;;4.93;2.00;;;8.30;99.90;;;;;;5062633;28;20200;-58
2023/11/03 01:45:38;;;;;;;4.43;2.13;;;8.30;99.90;;;;;;5083409;28;20208;-58
2023/11/03 01:48:07;;;;;;;2.27;2.10;;;8.30;99.90;;;;;;5068044;28;20220;-58
2023/11/03 01:50:36;;;;;;;6.03;2.00;;;8.30;99.90;;;;;;5065431;28;20212;-59
2023/11/03 01:53:05;;;;;;;4.70;1.90;;;8.30;99.90;;;;;;5069567;28;20697;-58
2023/11/03 01:55:35;;;;;;;5.10;1.90;;;8.30;99.90;;;;;;5073526;28;20204;-59
2023/11/03 01:58:04;;;;;;;6.97;1.90;;;8.40;99.90;;;;;;5064163;28;20231;-59
2023/11/03 02:00:32;;;;;;;2.60;1.90;;;8.50;99.90;;;;;;5071374;28;22002;-59
2023/11/03 02:03:00;;;;;;;5.20;2.00;;;8.50;99.90;;;;;;5071481;28;20232;-59
2023/11/03 02:05:28;;;;;;;4.93;2.00;;;8.50;99.90;;;;;;5064676;28;20216;-60
2023/11/03 02:07:58;;;;;;;8.63;2.37;;;8.50;99.90;;;;;;5074556;28;20231;-59
2023/11/03 02:10:26;;;;;;;1.97;1.87;;;8.50;99.90;;;;;;5092440;28;20188;-59
2023/11/03 02:12:56;;;;;;;3.83;2.00;;;8.60;99.90;;;;;;5089312;28;20227;-60
2023/11/03 02:15:24;;;;;;;8.70;2.47;;;8.60;99.90;;;;;;5081662;28;20302;-59
2023/11/03 02:17:52;;;;;;;5.60;2.10;;;8.60;99.90;;;;;;5083914;28;20218;-59
2023/11/03 02:20:22;;;;;;;5.67;2.20;;;8.50;99.90;;;;;;5088731;28;20219;-60
2023/11/03 02:22:54;;;;;;;5.47;2.33;;;8.50;99.90;;;;;;5090575;28;20278;-59
2023/11/03 02:25:22;;;;;;;9.30;2.40;;;8.50;99.90;;;;;;5085719;28;20195;-60
2023/11/03 02:27:53;;;;;;;10.20;2.60;;;8.40;99.90;;;;;;5089092;28;20211;-59
2023/11/03 02:30:21;;;;;;;5.47;2.30;;;8.40;99.90;;;;;;5097843;28;20731;-59
2023/11/03 02:32:50;;;;;;;9.47;2.27;;;8.40;99.90;;;;;;5088823;28;20222;-59
2023/11/03 02:35:19;;;;;;;7.00;2.53;;;8.30;99.90;;;;;;5084872;28;20737;-59
2023/11/03 02:37:47;;;;;;;14.00;3.10;;;8.30;99.90;;;;;;5084393;28;20685;-59
2023/11/03 02:40:17;;;;;;;9.07;2.43;;;8.30;99.90;;;;;;5086675;28;20215;-59
2023/11/03 02:42:46;;;;;;;10.87;3.80;;;8.30;99.90;;;;;;5085722;28;20243;-59
2023/11/03 02:45:14;;;;;;;9.60;2.87;;;8.20;99.90;;;;;;5086528;28;20215;-60
2023/11/03 02:47:43;;;;;;;7.10;2.57;;;8.30;99.90;;;;;;5086672;28;20233;-59
2023/11/03 02:50:11;;;;;;;11.43;2.77;;;8.30;99.90;;;;;;5091599;28;20223;-59
2023/11/03 02:52:40;;;;;;;11.23;2.30;;;8.30;99.90;;;;;;5085400;28;20195;-57
2023/11/03 02:55:08;;;;;;;8.40;2.80;;;8.30;99.90;;;;;;5062721;28;20212;-58
2023/11/03 02:57:38;;;;;;;11.60;2.50;;;8.30;99.90;;;;;;5087663;28;20881;-59
2023/11/03 03:00:11;;;;;;;9.37;2.60;;;8.40;99.90;;;;;;5093189;28;20223;-59
2023/11/03 03:02:59;;;;;;;8.37;2.77;;;8.40;99.90;;;;;;5080579;28;20561;-59
2023/11/03 03:05:27;;;;;;;9.47;2.60;;;8.40;99.90;;;;;;5087096;28;20223;-59
2023/11/03 03:07:55;;;;;;;9.73;2.43;;;8.40;99.90;;;;;;5066439;28;20223;-59
2023/11/03 03:10:43;;;;;;;8.30;2.60;;;8.50;99.90;;;;;;5085916;28;20183;-60
2023/11/03 03:13:13;;;;;;;6.17;2.53;;;8.50;99.90;;;;;;5082554;28;20223;-60
2023/11/03 03:15:47;;;;;;;4.80;2.07;;;8.50;99.90;;;;;;5083356;28;20299;-58
2023/11/03 03:18:16;;;;;;;7.93;3.00;;;8.60;99.90;;;;;;5082804;28;20242;-59
2023/11/03 03:20:44;;;;;;;13.23;2.40;;;8.60;99.90;;;;;;5091346;28;20839;-59
2023/11/03 03:23:15;;;;;;;8.10;2.67;;;8.70;99.90;;;;;;5089576;28;20214;-59
2023/11/03 03:25:43;;;;;;;9.17;2.10;;;8.60;99.90;;;;;;5088898;28;20232;-59
2023/11/03 03:28:13;;;;;;;5.10;2.17;;;8.60;99.90;;;;;;5089537;28;20224;-60
2023/11/03 03:30:47;;;;;;;7.63;2.77;;;8.60;99.90;;;;;;5086024;28;20216;-59
2023/11/03 03:33:16;;;;;;;10.30;2.13;;;8.60;99.90;;;;;;5091285;28;20218;-59
2023/11/03 03:35:44;;;;;;;8.53;2.40;;;8.60;99.90;;;;;;5079581;28;20224;-59
2023/11/03 03:38:13;;;;;;;6.70;2.30;;;8.60;99.90;;;;;;5071402;28;20216;-59
2023/11/03 03:40:41;;;;;;;10.13;2.30;;;8.60;99.90;;;;;;5072995;28;20535;-57
2023/11/03 03:43:11;;;;;;;8.30;2.33;;;8.60;99.90;;;;;;5092088;28;20192;-59
2023/11/03 03:45:43;;;;;;;8.27;2.37;;;8.60;99.90;;;;;;5095644;28;20207;-60
2023/11/03 03:48:12;;;;;;;7.37;2.50;;;8.60;99.90;;;;;;5097412;28;20223;-59
2023/11/03 03:50:40;;;;;;;8.53;2.43;;;8.60;99.90;;;;;;5088767;28;20215;-59
2023/11/03 03:53:08;;;;;;;9.37;2.20;;;8.60;99.90;;;;;;5089875;28;20215;-59
2023/11/03 03:55:37;;;;;;;8.87;2.10;;;8.60;99.90;;;;;;5090827;28;20207;-59
2023/11/03 03:58:06;;;;;;;13.00;2.37;;;8.60;99.90;;;;;;5090793;28;20215;-60
2023/11/03 04:00:35;;;;;;;6.00;2.23;;;8.60;99.90;;;;;;5088954;28;20725;-60
2023/11/03 04:03:05;;;;;;;9.53;2.20;;;8.60;99.90;;;;;;5090960;28;20227;-60
2023/11/03 04:05:33;;;;;;;4.53;2.07;;;8.60;99.90;;;;;;5095027;28;20215;-59
2023/11/03 04:08:03;;;;;;;12.53;2.50;;;8.60;99.90;;;;;;5093447;28;20280;-60
2023/11/03 04:10:33;;;;;;;6.23;2.37;;;8.60;99.90;;;;;;5096651;28;20676;-59
2023/11/03 04:13:02;;;;;;;5.10;1.80;;;8.60;99.90;;;;;;5091657;28;20258;-60
2023/11/03 04:15:31;;;;;;;3.83;1.90;;;8.60;99.90;;;;;;5093353;28;20592;-59
2023/11/03 04:18:00;;;;;;;7.33;2.07;;;8.50;99.90;;;;;;5080223;28;20303;-60
2023/11/03 04:20:30;;;;;;;5.97;2.03;;;8.50;99.90;;;;;;5071098;28;20589;-60
2023/11/03 04:22:58;;;;;;;6.70;2.00;;;8.50;99.90;;;;;;5072696;28;20224;-59
2023/11/03 04:25:26;;;;;;;4.53;1.90;;;8.50;99.90;;;;;;5069633;28;20634;-59
2023/11/03 04:27:54;;;;;;;8.70;2.00;;;8.50;99.90;;;;;;5074283;28;20235;-59
2023/11/03 04:30:23;;;;;;;4.53;1.70;;;8.50;99.90;;;;;;5067654;28;20303;-59
2023/11/03 04:32:52;;;;;;;5.33;1.87;;;8.50;99.90;;;;;;5065561;28;20231;-59
2023/11/03 04:35:21;;;;;;;6.23;2.10;;;8.50;99.90;;;;;;5068769;28;20224;-59
2023/11/03 04:37:50;;;;;;;4.57;2.00;;;8.50;99.90;;;;;;5070048;28;20215;-58
2023/11/03 04:40:20;;;;;;;7.17;2.23;;;8.50;99.90;;;;;;5088647;28;20210;-59
2023/11/03 04:42:49;;;;;;;5.47;1.80;;;8.60;99.90;;;;;;5087951;28;20223;-59
2023/11/03 04:45:17;;;;;;;5.23;1.63;;;8.60;99.90;;;;;;5096808;28;20229;-59
2023/11/03 04:47:45;;;;;;;5.93;1.97;;;8.60;99.90;;;;;;5085442;28;20710;-59
2023/11/03 04:50:14;;;;;;;5.07;2.20;;;8.70;99.90;;;;;;5089217;28;20689;-59
2023/11/03 04:52:42;;;;;;;3.50;1.67;;;8.70;99.90;;;;;;5082236;28;20184;-59
2023/11/03 04:55:12;;;;;;;4.97;1.77;;;8.70;99.90;;;;;;5088966;28;20194;-59
2023/11/03 04:57:40;;;;;;;4.90;2.00;;;8.70;99.90;;;;;;5095620;28;20751;-59
2023/11/03 05:00:10;;;;;;;8.50;2.13;;;8.70;99.90;;;;;;5093515;28;20226;-59
2023/11/03 05:02:43;;;;;;;5.93;2.43;;;8.70;99.90;;;;;;5081903;28;20250;-59
2023/11/03 05:05:11;;;;;;;7.23;1.80;;;8.70;99.90;;;;;;5089772;28;20219;-59
2023/11/03 05:07:42;;;;;;;13.20;2.70;;;8.80;99.90;;;;;;5090136;28;20219;-58
2023/11/03 05:10:13;;;;;;;7.37;2.03;;;8.80;99.90;;;;;;5086136;28;20204;-59
2023/11/03 05:12:41;;;;;;;6.23;2.20;;;8.80;99.90;;;;;;5087656;28;20211;-59
2023/11/03 05:15:11;;;;;;;10.00;1.87;;;8.80;99.90;;;;;;5093274;28;20221;-59
2023/11/03 05:17:39;;;;;;;7.60;2.37;;;8.80;99.90;;;;;;5088322;28;20712;-59
2023/11/03 05:20:09;;;;;;;10.63;2.93;;;8.80;99.90;;;;;;5090731;28;20225;-59
2023/11/03 05:22:37;;;;;;;7.40;2.47;;;8.80;99.90;;;;;;5070049;28;20604;-59
2023/11/03 05:25:07;;;;;;;7.60;2.00;;;8.80;99.90;;;;;;5087357;28;20424;-59
2023/11/03 05:27:38;;;;;;;10.33;2.50;;;8.80;99.90;;;;;;5088401;28;20223;-59
2023/11/03 05:30:08;;;;;;;7.23;2.10;;;8.80;99.90;;;;;;5085231;28;20639;-59
2023/11/03 05:32:36;;;;;;;5.03;1.80;;;8.70;99.90;;;;;;5078613;28;20230;-59
2023/11/03 05:35:05;;;;;;;8.47;2.13;;;8.70;99.90;;;;;;5081563;28;20214;-58
2023/11/03 05:37:34;;;;;;;11.83;2.47;;;8.80;99.90;;;;;;5087831;28;21096;-59
2023/11/03 05:40:03;;;;;;;12.77;2.60;;;8.70;99.90;;;;;;5086906;28;20693;-59
2023/11/03 05:42:32;;;;;;;6.20;1.97;;;8.70;99.90;;;;;;5088266;28;20237;-59
2023/11/03 05:45:02;;;;;;;9.60;2.60;;;8.70;99.90;;;;;;5087543;28;20223;-59
2023/11/03 05:47:30;;;;;;;8.57;2.50;;;8.70;99.90;;;;;;5089561;28;20208;-59
2023/11/03 05:49:59;;;;;;;11.47;2.53;;;8.70;99.90;;;;;;5071535;28;20230;-59
2023/11/03 05:52:27;;;;;;;3.70;2.17;;;8.70;99.90;;;;;;5088943;28;20180;-58
2023/11/03 05:54:55;;;;;;;8.63;2.53;;;8.70;99.90;;;;;;5086122;28;20230;-59
2023/11/03 05:57:26;;;;;;;9.03;2.00;;;8.60;99.90;;;;;;5101099;27;20715;-58
2023/11/03 05:59:55;;;;;;;9.17;2.30;;;8.60;99.90;;;;;;5096124;28;20237;-58
2023/11/03 06:02:43;;;;;;;8.13;2.40;;;8.60;99.90;;;;;;5087345;28;20234;-58
2023/11/03 06:05:12;;;;;;;7.07;2.27;;;8.60;99.90;;;;;;5046615;28;20244;-58
2023/11/03 06:07:41;;;;;;;8.90;2.40;;;8.60;99.90;;;;;;5050058;28;20675;-59
2023/11/03 06:10:14;;;;;;;6.57;2.03;;;8.60;99.90;;;;;;5052079;28;20185;-59
2023/11/03 06:12:43;;;;;;;6.13;2.27;;;8.60;99.90;;;;;;5050793;28;20221;-59
2023/11/03 06:15:13;;;;;;;9.80;2.77;;;8.60;99.90;;;;;;5052035;28;20283;-59
2023/11/03 06:17:41;;;;;;;10.57;2.40;;;8.60;99.90;;;;;;5045682;28;20224;-59
2023/11/03 06:20:13;;;;;;;10.63;3.00;;;8.60;99.90;;;;;;5048166;28;20221;-59
2023/11/03 06:22:41;;;;;;;8.23;3.17;;;8.60;99.90;;;;;;5048106;28;20197;-60
2023/11/03 06:25:10;;;;;;;11.80;2.33;;;8.60;99.90;;;;;;5051796;28;20666;-59
2023/11/03 06:27:38;;;;;;;5.07;2.20;;;8.60;99.90;;;;;;5026234;28;20228;-59
2023/11/03 06:30:08;;;;;;;11.03;2.53;;;8.50;99.90;;;;;;5029106;28;20221;-58
2023/11/03 06:32:36;;;;;;;5.63;2.30;;;8.50;99.90;;;;;;5033724;28;20220;-60
2023/11/03 06:35:05;;;;;;;7.47;2.07;;;8.50;99.90;;;;;;5056777;28;20769;-59
2023/11/03 06:37:35;;;;;;;14.27;3.13;;;8.50;99.90;;;;;;5037101;28;20263;-50
2023/11/03 06:40:03;;;;;;;2.93;2.00;;;8.40;99.90;;;;;;5047423;28;20205;-59
2023/11/03 06:42:32;;;;;;;8.83;2.80;;;8.30;99.90;;;;;;5039325;28;20221;-59
2023/11/03 06:45:01;;;;;;;8.17;2.30;;;8.30;99.90;;;;;;5048283;28;20586;-60
2023/11/03 06:47:29;;;;;;;5.97;2.10;;;8.30;99.90;;;;;;5049763;28;20227;-59
2023/11/03 06:49:58;;;;;;;5.97;2.30;;;8.30;99.90;;;;;;5043119;28;20228;-59
2023/11/03 06:52:26;;;;;;;11.47;2.80;;;8.30;99.90;;;;;;5048867;28;20196;-58
2023/11/03 06:54:56;;;;;;;8.97;2.43;;;8.30;99.90;;;;;;5043507;28;20307;-59
2023/11/03 06:57:25;;;;;;;9.80;2.17;;;8.30;99.90;;;;;;5045024;28;20703;-59
2023/11/03 06:59:53;;;;;;;13.23;2.40;;;8.30;99.90;;;;;;5042905;28;20217;-60
2023/11/03 07:02:21;;;;;;;10.60;2.27;;;8.30;99.90;;;;;;5046726;28;20228;-59
2023/11/03 07:04:50;;;;;;;7.83;2.20;;;8.30;99.90;;;;;;5085968;28;20756;-59
2023/11/03 07:07:22;;;;;;;8.53;2.07;;;8.20;99.90;;;;;;5083273;28;20238;-59
2023/11/03 07:09:52;;;;;;;8.07;2.00;;;8.20;99.90;;;;;;5068427;28;20278;-60
2023/11/03 07:12:21;;;;;;;8.50;2.63;;;8.20;99.90;;;;;;5080743;28;20269;-60
2023/11/03 07:14:51;;;;;;;6.23;2.30;;;8.20;99.90;;;;;;5088708;28;20243;-60
2023/11/03 07:17:20;;;;;;;7.87;1.93;;;8.20;99.90;;;;;;5082817;28;20238;-60
2023/11/03 07:19:48;;;;;;;9.07;2.50;;;8.20;99.90;;;;;;5080123;28;20194;-60
2023/11/03 07:22:22;;;;;;;4.53;2.00;;;8.20;99.90;;;;;;5088476;28;21204;-59
2023/11/03 07:24:50;;;;;;;8.73;2.30;;;8.20;99.90;;;;;;5092434;28;20227;-60
2023/11/03 07:27:19;;;;;;;6.17;2.47;;;8.30;99.90;;;;;;5086262;28;20224;-60
2023/11/03 07:29:50;;;;;;;3.30;1.70;;;8.30;99.90;;;;;;5090811;28;20667;-60
2023/11/03 07:32:18;;;;;;;10.97;2.30;;;8.20;99.90;;;;;;5076330;28;20219;-60
2023/11/03 07:34:46;;;;;;;6.77;2.10;;;8.20;99.90;;;;;;5086333;28;20196;-59
2023/11/03 07:37:17;;;;;;;5.00;2.40;;;8.30;99.90;;;;;;5088383;28;20187;-60
2023/11/03 07:39:49;;;;;;;6.57;2.63;;;8.30;99.90;;;;;;5086327;28;20237;-60
2023/11/03 07:42:18;;;;;;;10.60;2.47;;;8.40;99.90;;;;;;5087958;28;20218;-60
2023/11/03 07:44:46;;;;;;;8.70;3.00;;;8.40;99.90;;;;;;5078718;28;20230;-58
2023/11/03 07:47:16;;;;;;;8.87;2.43;;;8.50;99.90;;;;;;5087835;28;20882;-59
2023/11/03 07:49:46;;;;;;;9.00;2.20;;;8.50;99.90;;;;;;5079621;28;20202;-59
2023/11/03 07:52:14;;;;;;;9.70;2.53;;;8.50;99.90;;;;;;5082127;28;20237;-59
2023/11/03 07:54:44;;;;;;;8.00;2.27;;;8.50;99.90;;;;;;5082123;28;20675;-59
2023/11/03 07:57:14;;;;;;;8.77;2.17;;;8.50;99.90;;;;;;5084194;28;20226;-59
2023/11/03 07:59:42;;;;;;;5.70;2.10;;;8.60;99.90;;;;;;5079206;28;20227;-59
2023/11/03 08:02:11;;;;;;;6.20;2.20;;;8.60;99.90;;;;;;5082559;28;20223;-59
2023/11/03 08:04:41;;;;;;;8.37;2.23;;;8.60;99.90;;;;;;5079736;28;20618;-58
2023/11/03 08:07:09;;;;;;;6.17;2.37;;;8.60;99.90;;;;;;5080846;28;20199;-60
2023/11/03 08:09:37;;;;;;;7.90;2.10;;;8.70;99.90;;;;;;5083507;28;20212;-59
2023/11/03 08:12:08;;;;;;;9.10;2.30;;;8.70;99.90;;;;;;5086511;28;20223;-60
2023/11/03 08:14:36;;;;;;;11.27;2.43;;;8.70;99.90;;;;;;5090069;28;20215;-59
2023/11/03 08:17:05;;;;;;;8.77;2.57;;;8.80;99.90;;;;;;5086201;28;20658;-57
2023/11/03 08:19:34;;;;;;;8.17;2.50;;;8.80;99.90;;;;;;5093601;28;20268;-58
2023/11/03 08:22:04;;;;;;;13.73;3.07;;;8.80;99.90;;;;;;5087221;28;20228;-59
2023/11/03 08:24:32;;;;;;;9.57;2.20;;;8.90;99.90;;;;;;5088680;28;20274;-59
2023/11/03 08:27:02;;;;;;;10.77;3.20;;;8.90;99.90;;;;;;5076332;28;20245;-59
2023/11/03 08:29:30;;;;;;;8.90;2.40;;;8.90;99.90;;;;;;5090083;28;20255;-59
2023/11/03 08:31:59;;;;;;;10.63;2.70;;;8.90;99.90;;;;;;5070336;28;20322;-59
2023/11/03 08:34:46;;;;;;;14.20;2.20;;;9.00;99.90;;;;;;5081123;28;20188;-58
2023/11/03 08:37:17;;;;;;;5.97;2.10;;;8.90;99.90;;;;;;5088054;28;20697;-59
2023/11/03 08:39:46;;;;;;;9.67;2.50;;;8.90;99.90;;;;;;5082824;28;20226;-59
2023/11/03 08:42:16;;;;;;;13.20;2.47;;;8.90;99.90;;;;;;5089997;28;20228;-59
2023/11/03 08:44:45;;;;;;;6.67;2.20;;;8.90;99.90;;;;;;5083825;28;20216;-59
2023/11/03 08:47:14;;;;;;;9.60;2.30;;;9.00;99.90;;;;;;5090063;28;20215;-58
2023/11/03 08:49:43;;;;;;;9.07;2.27;;;9.00;99.90;;;;;;5086852;28;20553;-59
2023/11/03 08:52:12;;;;;;;8.43;2.50;;;9.00;99.90;;;;;;5088154;28;20291;-59
2023/11/03 08:54:42;;;;;;;11.77;2.43;;;9.10;99.90;;;;;;5084122;28;20219;-59
2023/11/03 08:57:11;;;;;;;8.37;2.40;;;9.10;99.90;;;;;;5086097;28;20224;-60
2023/11/03 08:59:40;;;;;;;9.57;2.50;;;9.20;99.90;;;;;;5084837;28;20712;-59
2023/11/03 09:02:08;;;;;;;11.47;3.17;;;9.20;99.90;;;;;;5085319;28;20216;-59
2023/11/03 09:04:36;;;;;;;13.30;2.43;;;9.20;99.90;;;;;;5071866;28;20231;-61
2023/11/03 09:07:04;;;;;;;5.20;2.37;;;9.20;99.90;;;;;;5085061;28;20244;-59
2023/11/03 09:09:33;;;;;;;10.67;2.20;;;9.30;99.90;;;;;;5083085;28;20224;-60
2023/11/03 09:12:02;;;;;;;12.97;2.83;;;9.40;99.90;;;;;;5081659;28;20590;-58
2023/11/03 09:14:31;;;;;;;12.53;2.57;;;9.60;99.90;;;;;;5083906;28;20257;-59
2023/11/03 09:16:59;;;;;;;10.30;2.50;;;9.70;99.90;;;;;;5077460;28;20704;-59
2023/11/03 09:19:29;;;;;;;8.30;2.37;;;9.90;99.90;;;;;;5085300;28;20582;-58
2023/11/03 09:22:08;;;;;;;9.10;2.90;;;10.00;99.90;;;;;;5083771;28;20208;-58
2023/11/03 09:24:44;;;;;;;5.43;2.40;;;10.00;99.90;;;;;;5085890;28;20260;-59
2023/11/03 09:27:18;;;;;;;8.00;2.40;;;10.10;99.90;;;;;;5070227;28;20214;-59
2023/11/03 09:29:50;;;;;;;7.97;2.70;;;10.10;99.90;;;;;;5083929;28;20231;-59
2023/11/03 09:32:22;;;;;;;9.27;2.37;;;10.10;99.90;;;;;;5086100;28;20698;-59
2023/11/03 09:34:55;;;;;;;7.50;2.80;;;10.10;99.90;;;;;;5086651;28;20246;-59
2023/11/03 09:37:30;;;;;;;9.97;2.47;;;10.10;97.90;;;;;;5087687;28;20305;-59
2023/11/03 09:40:01;;;;;;;10.00;2.53;;;10.10;99.90;;;;;;5077056;28;20223;-59
2023/11/03 09:42:41;;;;;;;7.97;2.37;;;10.20;97.90;;;;;;5084385;28;20219;-59
2023/11/03 09:45:23;;;;;;;10.47;2.57;;;10.30;99.00;;;;;;5078384;28;20219;-59
2023/11/03 09:47:58;;;;;;;6.10;2.40;;;10.40;94.10;;;;;;5080569;28;20679;-59
2023/11/03 09:50:27;;;;;;;12.87;3.17;;;10.50;91.80;;;;;;5087624;28;20214;-60
2023/11/03 09:52:58;;;;;;;10.27;2.27;;;10.70;93.70;;;;;;5088742;28;20415;-59
2023/11/03 09:55:30;;;;;;;7.93;2.87;;;10.90;75.90;;;;;;5089224;28;20193;-59
2023/11/03 09:58:01;;;;;;;10.43;2.13;;;11.10;81.30;;;;;;5091936;28;20214;-59
2023/11/03 10:00:31;;;;;;;9.10;2.60;;;11.20;70.80;;;;;;5088740;28;20232;-59
2023/11/03 10:03:01;;;;;;;9.83;2.50;;;11.20;58.70;;;;;;5088792;28;20560;-59
2023/11/03 10:05:31;;;;;;;9.13;2.80;;;11.20;56.00;;;;;;5082967;28;20426;-59
2023/11/03 10:08:01;;;;;;;8.97;3.20;;;11.30;60.60;;;;;;5080613;28;20254;-60
2023/11/03 10:10:34;;;;;;;9.17;2.60;;;11.30;64.10;;;;;;5065223;28;20187;-58
2023/11/03 10:13:09;;;;;;;7.50;2.57;;;11.40;55.00;;;;;;5079556;28;20223;-59
2023/11/03 10:15:38;;;;;;;8.37;2.47;;;11.50;54.30;;;;;;5090399;28;20210;-59
2023/11/03 10:18:07;;;;;;;7.03;2.50;;;11.50;51.40;;;;;;5086411;28;20228;-58
2023/11/03 10:20:36;;;;;;;9.33;2.47;;;11.60;57.30;;;;;;5090068;28;20223;-59
2023/11/03 10:23:06;;;;;;;6.23;2.20;;;11.60;25.90;;;;;;5090512;28;20592;-59
2023/11/03 10:25:36;;;;;;;10.70;2.53;;;11.50;41.90;;;;;;5085363;28;20192;-58
2023/11/03 10:28:08;;;;;;;14.30;2.40;;;11.30;39.40;;;;;;5083469;28;20202;-59
2023/11/03 10:30:38;;;;;;;5.67;2.00;;;11.20;57.00;;;;;;5090505;28;20211;-58
2023/11/03 10:33:07;;;;;;;6.57;2.20;;;11.10;41.60;;;;;;5086685;28;20737;-58
2023/11/03 10:35:36;;;;;;;6.03;2.40;;;11.10;45.70;;;;;;5086434;28;20222;-58
2023/11/03 10:38:05;;;;;;;6.63;2.27;;;11.30;36.70;;;;;;5077501;28;20726;-59
2023/11/03 10:40:33;;;;;;;2.93;1.93;;;11.60;40.20;;;;;;5080116;28;20208;-59
2023/11/03 10:43:09;;;;;;;14.13;3.40;;;11.60;27.20;;;;;;5093004;28;20218;-59
2023/11/03 10:45:40;;;;;;;9.37;2.37;;;11.80;31.60;;;;;;5080184;28;20261;-59
2023/11/03 10:48:12;;;;;;;9.63;2.87;;;11.90;2.20;;;;;;5080550;28;20709;-59
2023/11/03 10:51:04;;;;;;;6.63;2.30;;;12.00;11.10;;;;;;5091509;28;20218;-58
2023/11/03 10:53:47;;;;;;;9.60;2.17;;;12.10;1.00;;;;;;5087837;28;20286;-59
2023/11/03 10:56:23;;;;;;;9.70;2.30;;;12.20;10.50;;;;;;5075432;28;20215;-59
2023/11/03 10:59:14;;;;;;;9.80;2.30;;;12.30;1.00;;;;;;5080966;28;20223;-58
2023/11/03 11:01:49;;;;;;;5.53;1.90;;;12.20;1.00;;;;;;5085086;28;20191;-59
2023/11/03 11:04:21;;;;;;;11.43;2.10;;;12.10;1.00;;;;;;5079273;28;20226;-59
2023/11/03 11:06:54;;;;;;;7.77;2.20;;;12.00;1.00;;;;;;5080019;28;20318;-60
2023/11/03 11:09:34;;;;;;;9.53;2.63;;;12.00;1.00;;;;;;5083505;28;20230;-59
2023/11/03 11:12:02;;;;;;;9.13;2.03;;;11.90;5.10;;;;;;5082355;28;20216;-58
2023/11/03 11:14:37;;;;;;;6.53;2.10;;;12.00;1.00;;;;;;5080115;28;20230;-58
2023/11/03 11:17:09;;;;;;;12.03;2.53;;;12.00;1.00;;;;;;5065473;28;20272;-59
2023/11/03 11:19:42;;;;;;;8.03;2.33;;;12.30;1.00;;;;;;5084897;28;20254;-59
2023/11/03 11:22:15;;;;;;;7.83;2.30;;;12.40;1.00;;;;;;5065768;28;20228;-58
2023/11/03 11:24:43;;;;;;;11.10;2.47;;;12.60;1.00;;;;;;5087618;28;20656;-59
2023/11/03 11:27:16;;;;;;;8.30;2.20;;;12.70;1.00;;;;;;5085215;28;20677;-59
2023/11/03 11:29:49;;;;;;;7.73;2.10;;;12.60;1.00;;;;;;5084471;28;20756;-59
2023/11/03 11:32:18;;;;;;;8.33;2.37;;;12.60;1.00;;;;;;5085933;28;20702;-59
2023/11/03 11:34:48;;;;;;;9.77;1.90;;;12.70;1.00;;;;;;5081776;28;20235;-58
2023/11/03 11:37:27;;;;;;;11.97;2.13;;;12.60;1.00;;;;;;5085778;28;20183;-58
2023/11/03 11:39:57;;;;;;;6.93;2.13;;;12.50;1.00;;;;;;5078290;28;20219;-58
2023/11/03 11:42:27;;;;;;;7.73;2.37;;;12.50;1.00;;;;;;5080084;28;20277;-58
2023/11/03 11:44:59;;;;;;;10.87;2.27;;;12.60;1.00;;;;;;5081864;28;20244;-58
2023/11/03 11:47:29;;;;;;;9.33;2.27;;;12.40;1.00;;;;;;5083796;28;20222;-57
2023/11/03 11:49:58;;;;;;;9.40;2.30;;;12.30;1.00;;;;;;5086561;28;20231;-59
2023/11/03 11:52:28;;;;;;;7.20;1.90;;;12.30;1.00;;;;;;5077218;28;20195;-59
2023/11/03 11:54:58;;;;;;;10.10;1.97;;;12.20;1.00;;;;;;5086984;28;20306;-59
2023/11/03 11:57:31;;;;;;;7.43;1.80;;;12.40;1.00;;;;;;5090592;28;20226;-59
2023/11/03 12:00:01;;;;;;;4.23;1.60;;;12.40;1.00;;;;;;5090222;28;20222;-59
2023/11/03 12:02:29;;;;;;;6.23;2.10;;;12.50;1.00;;;;;;5088416;28;20213;-59
2023/11/03 12:04:57;;;;;;;8.03;2.20;;;12.50;1.00;;;;;;5086469;28;20704;-59
2023/11/03 12:07:29;;;;;;;8.47;2.30;;;12.40;1.00;;;;;;5091831;28;20758;-58
2023/11/03 12:09:58;;;;;;;7.40;1.63;;;12.40;1.00;;;;;;5086284;28;20222;-59
2023/11/03 12:12:28;;;;;;;4.13;1.93;;;12.40;1.00;;;;;;5087515;28;20220;-59
2023/11/03 12:14:58;;;;;;;6.90;2.13;;;12.30;1.00;;;;;;5082839;28;20297;-59
2023/11/03 12:17:28;;;;;;;6.43;1.93;;;12.30;1.00;;;;;;5085183;28;20585;-59
2023/11/03 12:19:57;;;;;;;9.60;2.07;;;12.30;1.00;;;;;;5085487;28;20211;-59
2023/11/03 12:22:26;;;;;;;7.80;1.67;;;12.30;1.00;;;;;;5090189;28;20191;-58
2023/11/03 12:24:55;;;;;;;9.77;1.93;;;12.20;1.00;;;;;;5088429;28;20223;-57
2023/11/03 12:27:25;;;;;;;5.70;1.70;;;12.20;1.00;;;;;;5087989;28;20219;-60
2023/11/03 12:30:03;;;;;;;4.43;1.80;;;12.40;1.00;;;;;;5087591;28;20228;-60
2023/11/03 12:32:34;;;;;;;4.93;1.70;;;12.50;1.00;;;;;;5084529;28;20218;-59
2023/11/03 12:35:03;;;;;;;8.47;2.03;;;12.60;1.00;;;;;;5085230;28;20592;-60
2023/11/03 12:37:31;;;;;;;2.63;1.40;;;12.70;1.00;;;;;;5088411;28;20311;-59
2023/11/03 12:40:00;;;;;;;4.87;1.40;;;12.70;1.00;;;;;;5084252;28;20219;-60
2023/11/03 12:42:47;;;;;;;6.80;1.63;;;12.70;1.00;;;;;;5087584;28;20215;-59
2023/11/03 12:45:18;;;;;;;3.93;1.87;;;12.70;1.00;;;;;;5086477;28;20222;-60
2023/11/03 12:47:50;;;;;;;3.73;1.90;;;12.70;1.00;;;;;;5084059;28;20220;-59
2023/11/03 12:50:21;;;;;;;5.90;1.90;;;12.80;1.00;;;;;;5092722;28;20269;-60
2023/11/03 12:53:04;;;;;;;7.70;1.73;;;12.80;1.00;;;;;;5085126;28;20196;-59
2023/11/03 12:55:34;;;;;;;8.17;2.10;;;13.00;1.00;;;;;;5085971;28;20184;-59
2023/11/03 12:58:10;;;;;;;3.93;1.87;;;13.10;1.00;;;;;;5085769;28;20239;-59
2023/11/03 13:00:39;;;;;;;4.60;1.70;;;13.40;1.00;;;;;;5084603;28;20824;-60
2023/11/03 13:03:09;;;;;;;8.50;1.83;;;13.60;1.00;;;;;;5063371;28;20824;-59
2023/11/03 13:05:42;;;;;;;5.13;1.90;;;13.60;1.00;;;;;;5083770;28;20218;-59
2023/11/03 13:08:11;;;;;;;3.80;1.73;;;13.40;1.00;;;;;;5083266;28;20277;-59